Time;durP1;ratioP1;P1;durP2;ratioP2;P2;SDS_P1;SDS_P2;PMS_P1;PMS_P2;Temp;Humidity;BMP_temperature;BMP_pressure;BME280_temperature;BME280_humidity;BME280_pressure;Samples;Min_cycle;Max_cycle;Signal;HPM_P1;HPM_P2
2022/10/18 00:00:59;;;;;;;5.57;2.70;;;;;;;15.11;52.26;100995.25;4445134;32;33065;-65
2022/10/18 00:03:27;;;;;;;5.82;3.55;;;;;;;15.12;51.79;100991.59;4440453;32;33280;-63
2022/10/18 00:05:55;;;;;;;5.57;3.37;;;;;;;15.07;51.81;100992.91;4449052;32;33777;-62
2022/10/18 00:08:22;;;;;;;5.72;3.75;;;;;;;15.03;52.13;100992.25;4442186;32;33870;-65
2022/10/18 00:10:50;;;;;;;5.65;4.10;;;;;;;15.08;52.03;100994.59;4443644;32;33502;-63
2022/10/18 00:13:18;;;;;;;8.15;3.70;;;;;;;14.98;52.37;100991.72;4445040;32;33654;-64
2022/10/18 00:15:56;;;;;;;3.70;2.78;;;;;;;15.05;52.26;100987.59;4443759;32;33899;-64
2022/10/18 00:18:24;;;;;;;3.87;2.97;;;;;;;15.02;52.09;100982.44;4443928;32;33905;-63
2022/10/18 00:21:04;;;;;;;4.70;3.20;;;;;;;14.98;52.07;100978.25;4443816;32;34361;-63
2022/10/18 00:23:33;;;;;;;8.60;5.37;;;;;;;14.84;52.47;100976.56;4438125;32;33941;-63
2022/10/18 00:26:13;;;;;;;6.45;4.25;;;;;;;14.80;52.78;100975.09;4439506;32;35338;-63
2022/10/18 00:28:42;;;;;;;5.82;3.50;;;;;;;14.81;52.64;100978.63;4447637;32;33831;-65
2022/10/18 00:31:19;;;;;;;4.12;2.55;;;;;;;14.73;52.58;100981.88;4443473;32;34173;-66
2022/10/18 00:33:52;;;;;;;4.78;2.80;;;;;;;14.72;52.14;100968.53;4447613;32;34932;-62
2022/10/18 00:36:20;;;;;;;4.43;3.30;;;;;;;14.77;51.90;100975.31;4439496;32;34994;-62
2022/10/18 00:38:48;;;;;;;4.90;4.22;;;;;;;14.72;52.12;100979.31;4445490;32;33999;-62
2022/10/18 00:41:20;;;;;;;7.87;3.33;;;;;;;14.68;52.23;100973.28;4439033;32;33296;-62
2022/10/18 00:44:05;;;;;;;5.22;3.45;;;;;;;14.73;52.23;100971.09;4445468;32;34762;-63
2022/10/18 00:46:34;;;;;;;5.85;3.95;;;;;;;14.71;52.46;100966.81;4441625;32;33813;-63
2022/10/18 00:49:09;;;;;;;6.70;4.72;;;;;;;14.71;52.64;100972.19;4448729;32;34929;-62
2022/10/18 00:51:44;;;;;;;5.72;3.28;;;;;;;14.73;52.74;100964.84;4429522;32;33201;-64
2022/10/18 00:54:13;;;;;;;9.02;4.53;;;;;;;14.74;53.01;100962.06;4441526;32;35072;-63
2022/10/18 00:56:43;;;;;;;4.15;2.87;;;;;;;14.72;52.84;100955.91;4443689;32;33680;-63
2022/10/18 00:59:13;;;;;;;6.40;2.25;;;;;;;14.72;52.90;100953.22;4435901;32;33090;-61
2022/10/18 01:01:40;;;;;;;5.85;3.25;;;;;;;14.77;52.79;100960.97;4449028;32;33264;-62
2022/10/18 01:04:08;;;;;;;11.32;3.50;;;;;;;14.86;52.35;100954.88;4433652;32;33481;-62
2022/10/18 01:06:58;;;;;;;12.55;4.35;;;;;;;14.83;52.16;100955.09;4444159;32;34242;-65
2022/10/18 01:09:36;;;;;;;5.45;4.18;;;;;;;14.77;52.50;100950.19;4445353;32;33891;-65
2022/10/18 01:12:12;;;;;;;7.75;4.22;;;;;;;14.80;52.68;100944.53;4434728;32;33369;-63
2022/10/18 01:15:00;;;;;;;5.15;3.90;;;;;;;14.84;52.73;100946.91;4444411;32;34462;-63
2022/10/18 01:17:34;;;;;;;6.32;3.83;;;;;;;14.93;52.75;100945.41;4443278;32;33942;-65
2022/10/18 01:20:29;;;;;;;5.70;4.00;;;;;;;14.90;52.75;100935.69;4445486;32;33731;-65
2022/10/18 01:23:07;;;;;;;3.85;1.80;;;;;;;14.97;52.10;100935.25;4445392;32;33301;-64
2022/10/18 01:25:43;;;;;;;6.30;3.95;;;;;;;14.93;52.11;100937.31;4439290;32;34807;-66
2022/10/18 01:28:50;;;;;;;5.72;3.28;;;;;;;14.67;53.15;100940.09;4447198;32;34924;-66
2022/10/18 01:31:22;;;;;;;4.62;3.60;;;;;;;14.71;53.12;100929.94;4437859;32;35021;-67
2022/10/18 01:33:51;;;;;;;7.60;3.85;;;;;;;14.65;53.01;100925.84;4435403;32;33407;-65
2022/10/18 01:36:30;;;;;;;6.93;3.85;;;;;;;14.65;52.86;100923.16;4439650;32;34636;-66
2022/10/18 01:39:00;;;;;;;8.88;3.42;;;;;;;14.64;52.88;100929.53;4433252;32;35143;-66
2022/10/18 01:41:28;;;;;;;4.62;3.08;;;;;;;14.58;52.85;100924.59;4428431;32;33497;-64
2022/10/18 01:43:58;;;;;;;7.15;4.10;;;;;;;14.60;52.67;100922.63;4429746;32;34107;-64
2022/10/18 01:46:26;;;;;;;4.37;2.83;;;;;;;14.54;52.83;100917.72;4415632;32;32730;-67
2022/10/18 01:48:55;;;;;;;5.22;2.70;;;;;;;14.57;52.50;100914.75;4414920;32;33750;-68
2022/10/18 01:51:27;;;;;;;3.55;2.95;;;;;;;14.44;52.68;100914.78;4440281;32;34642;-63
2022/10/18 01:53:55;;;;;;;4.05;3.40;;;;;;;14.49;52.44;100909.06;4425271;32;33115;-63
2022/10/18 01:56:29;;;;;;;4.87;2.97;;;;;;;14.29;52.88;100907.81;4433624;32;33467;-63
2022/10/18 01:59:43;;;;;;;5.62;4.10;;;;;;;14.41;52.63;100903.34;4424677;32;34967;-63
2022/10/18 02:02:25;;;;;;;3.10;2.67;;;;;;;14.41;52.66;100901.53;4392417;32;33889;-62
2022/10/18 02:05:22;;;;;;;4.87;4.00;;;;;;;14.42;52.97;100895.16;4437710;32;33240;-63
2022/10/18 02:08:06;;;;;;;9.85;3.83;;;;;;;14.43;52.98;100896.88;4412785;32;34099;-62
2022/10/18 02:10:58;;;;;;;7.28;4.22;;;;;;;14.48;52.85;100887.59;4425175;32;34006;-63
2022/10/18 02:13:29;;;;;;;4.70;3.30;;;;;;;14.47;52.74;100892.13;4410613;32;32860;-63
2022/10/18 02:16:00;;;;;;;6.72;3.15;;;;;;;14.33;52.88;100887.75;4422811;32;34644;-63
2022/10/18 02:18:35;;;;;;;6.37;3.97;;;;;;;14.38;52.49;100895.47;4442275;32;33704;-62
2022/10/18 02:21:04;;;;;;;4.03;3.15;;;;;;;14.26;53.14;100891.00;4427056;32;34831;-63
2022/10/18 02:23:32;;;;;;;4.18;2.50;;;;;;;14.18;53.02;100891.53;4429339;32;33414;-63
2022/10/18 02:26:00;;;;;;;4.03;2.80;;;;;;;14.30;52.84;100893.34;4430780;32;34123;-62
2022/10/18 02:28:28;;;;;;;5.47;2.78;;;;;;;14.21;52.68;100894.00;4432076;32;33822;-63
2022/10/18 02:31:03;;;;;;;3.72;2.90;;;;;;;14.30;52.38;100893.34;4430784;32;35778;-64
2022/10/18 02:33:53;;;;;;;2.33;1.95;;;;;;;14.22;52.68;100903.81;4435795;32;34699;-63
2022/10/18 02:36:28;;;;;;;5.45;3.37;;;;;;;14.28;52.86;100894.44;4443125;32;34463;-63
2022/10/18 02:39:00;;;;;;;5.62;3.60;;;;;;;14.11;53.06;100899.19;4434306;32;33908;-64
2022/10/18 02:41:29;;;;;;;3.10;2.50;;;;;;;13.41;54.73;100898.72;4442545;32;35647;-62
2022/10/18 02:43:57;;;;;;;3.50;2.83;;;;;;;13.81;53.73;100896.84;4443545;32;33819;-65
2022/10/18 02:46:24;;;;;;;2.80;2.22;;;;;;;13.92;53.55;100907.72;4438852;32;32742;-65
2022/10/18 02:48:53;;;;;;;8.00;3.97;;;;;;;13.86;53.84;100894.69;4446393;32;33954;-63
2022/10/18 02:51:20;;;;;;;3.75;2.67;;;;;;;14.05;53.31;100893.38;4440216;32;34082;-63
2022/10/18 02:53:48;;;;;;;18.48;4.00;;;;;;;14.06;53.11;100895.09;4436431;32;34980;-66
2022/10/18 02:56:15;;;;;;;6.30;4.05;;;;;;;14.11;52.96;100893.81;4440699;32;33615;-63
2022/10/18 02:58:43;;;;;;;7.30;4.82;;;;;;;14.11;52.79;100891.13;4439702;32;34751;-66
2022/10/18 03:01:10;;;;;;;4.78;2.97;;;;;;;13.93;53.60;100896.00;4440901;32;34121;-65
2022/10/18 03:03:38;;;;;;;6.68;3.60;;;;;;;14.04;52.87;100895.22;4441235;32;34679;-63
2022/10/18 03:06:06;;;;;;;5.53;3.78;;;;;;;14.11;52.53;100898.34;4438949;32;33303;-64
2022/10/18 03:08:35;;;;;;;4.62;3.35;;;;;;;14.14;52.46;100898.13;4435582;32;33513;-64
2022/10/18 03:11:02;;;;;;;6.37;3.75;;;;;;;14.07;52.81;100897.69;4440358;32;33832;-63
2022/10/18 03:13:30;;;;;;;6.75;4.18;;;;;;;14.16;52.45;100902.44;4439153;32;33587;-66
2022/10/18 03:15:57;;;;;;;4.22;3.83;;;;;;;14.16;52.05;100902.44;4448187;32;33144;-62
2022/10/18 03:18:25;;;;;;;3.08;2.60;;;;;;;14.14;52.18;100904.38;4439411;32;35109;-63
2022/10/18 03:20:52;;;;;;;3.67;2.60;;;;;;;14.04;52.60;100905.13;4435026;32;35191;-63
2022/10/18 03:23:20;;;;;;;7.60;3.53;;;;;;;14.11;52.37;100909.97;4438000;32;33737;-66
2022/10/18 03:25:48;;;;;;;6.53;3.90;;;;;;;13.98;53.03;100907.28;4440620;32;33465;-63
2022/10/18 03:28:15;;;;;;;7.35;3.58;;;;;;;14.02;53.04;100913.31;4441570;32;33549;-63
2022/10/18 03:30:43;;;;;;;5.47;3.70;;;;;;;13.98;53.10;100909.13;4446738;32;33879;-66
2022/10/18 03:33:11;;;;;;;6.62;3.85;;;;;;;13.92;53.28;100909.53;4443517;32;33700;-63
2022/10/18 03:35:39;;;;;;;10.02;3.87;;;;;;;13.75;53.58;100908.91;4442789;32;33498;-64
2022/10/18 03:38:06;;;;;;;5.53;3.50;;;;;;;13.91;53.28;100915.91;4445266;32;34852;-63
2022/10/18 03:40:34;;;;;;;5.32;4.07;;;;;;;13.92;53.12;100909.53;4434746;32;32282;-63
2022/10/18 03:43:01;;;;;;;3.45;2.78;;;;;;;13.95;53.34;100902.13;4449160;32;33623;-63
2022/10/18 03:45:29;;;;;;;4.72;3.37;;;;;;;14.00;53.44;100912.56;4445709;32;36009;-62
2022/10/18 03:47:58;;;;;;;8.68;4.05;;;;;;;14.02;52.90;100910.63;4447788;32;33780;-61
2022/10/18 03:50:25;;;;;;;2.95;2.55;;;;;;;13.87;53.46;100917.09;4443156;32;33966;-62
2022/10/18 03:52:54;;;;;;;5.90;3.92;;;;;;;14.04;52.72;100916.75;4443250;32;33605;-63
2022/10/18 03:55:21;;;;;;;4.40;3.10;;;;;;;14.05;52.05;100918.47;4445537;32;34299;-66
2022/10/18 03:57:49;;;;;;;4.68;3.42;;;;;;;14.03;52.25;100916.84;4449021;32;33778;-65
2022/10/18 04:00:16;;;;;;;5.70;3.53;;;;;;;14.03;52.10;100919.53;4429729;32;32434;-64
2022/10/18 04:02:44;;;;;;;6.90;3.50;;;;;;;13.99;52.26;100917.06;4433887;32;32127;-63
2022/10/18 04:05:12;;;;;;;4.43;3.17;;;;;;;13.90;53.02;100920.44;4432143;32;33610;-64
2022/10/18 04:07:40;;;;;;;6.35;3.58;;;;;;;13.99;52.64;100921.59;4447825;32;35010;-63
2022/10/18 04:10:08;;;;;;;8.75;4.55;;;;;;;13.95;52.50;100910.19;4444201;32;33955;-65
2022/10/18 04:12:35;;;;;;;5.32;2.92;;;;;;;13.95;52.84;100915.56;4449530;32;32239;-63
2022/10/18 04:15:03;;;;;;;6.97;3.75;;;;;;;13.88;52.71;100921.50;4438507;32;33452;-63
2022/10/18 04:17:31;;;;;;;4.05;2.95;;;;;;;13.69;53.28;100911.16;4443026;32;33739;-64
2022/10/18 04:19:59;;;;;;;8.77;3.60;;;;;;;13.76;52.90;100917.81;4444603;32;35263;-64
2022/10/18 04:22:26;;;;;;;5.75;3.75;;;;;;;13.83;52.97;100902.97;4444538;32;33599;-64
2022/10/18 04:24:55;;;;;;;6.47;3.60;;;;;;;13.74;52.98;100911.72;4445463;32;33428;-63
2022/10/18 04:27:23;;;;;;;5.97;3.92;;;;;;;13.67;53.16;100916.62;4443701;32;32935;-64
2022/10/18 04:29:50;;;;;;;5.55;4.05;;;;;;;13.70;53.01;100913.72;4447455;32;35183;-63
2022/10/18 04:32:18;;;;;;;7.80;4.70;;;;;;;13.53;53.24;100914.03;4438499;32;32780;-62
2022/10/18 04:34:45;;;;;;;4.15;3.65;;;;;;;13.45;54.03;100900.25;4441626;32;33309;-64
2022/10/18 04:37:13;;;;;;;3.70;2.90;;;;;;;13.59;53.44;100900.16;4439462;32;33640;-62
2022/10/18 04:39:45;;;;;;;12.93;5.37;;;;;;;13.70;52.57;100908.34;4439249;32;34957;-63
2022/10/18 04:42:19;;;;;;;6.93;3.33;;;;;;;13.63;53.05;100896.28;4444669;32;34470;-63
2022/10/18 04:44:47;;;;;;;4.20;3.37;;;;;;;13.69;52.73;100895.88;4443729;32;32681;-63
2022/10/18 04:47:15;;;;;;;6.53;4.57;;;;;;;13.62;53.07;100896.41;4442384;32;33700;-64
2022/10/18 04:49:42;;;;;;;5.22;3.47;;;;;;;13.70;52.74;100886.81;4442979;32;32656;-64
2022/10/18 04:52:10;;;;;;;5.32;3.40;;;;;;;13.70;53.74;100889.50;4442767;32;33654;-64
2022/10/18 04:54:38;;;;;;;8.80;5.05;;;;;;;13.74;53.21;100882.13;4440562;32;32241;-62
2022/10/18 04:57:05;;;;;;;5.70;4.20;;;;;;;13.67;54.05;100883.50;4444189;32;33455;-63
2022/10/18 04:59:33;;;;;;;6.30;4.55;;;;;;;13.72;53.89;100881.34;4433270;32;32495;-62
2022/10/18 05:02:00;;;;;;;6.65;5.07;;;;;;;13.86;53.41;100875.00;4444377;32;34334;-63
2022/10/18 05:04:33;;;;;;;7.45;4.72;;;;;;;13.81;53.80;100886.09;4445469;32;33714;-61
2022/10/18 05:07:01;;;;;;;4.30;3.53;;;;;;;13.87;53.54;100877.59;4445658;32;34392;-62
2022/10/18 05:09:29;;;;;;;5.28;3.17;;;;;;;13.91;53.55;100878.22;4446444;32;35074;-65
2022/10/18 05:11:56;;;;;;;9.52;5.15;;;;;;;13.95;53.24;100872.50;4442441;32;33973;-65
2022/10/18 05:14:24;;;;;;;9.65;4.72;;;;;;;13.95;53.34;100866.28;4436154;32;34558;-63
2022/10/18 05:16:51;;;;;;;4.95;3.47;;;;;;;14.00;53.28;100880.28;4444906;32;33304;-64
2022/10/18 05:19:19;;;;;;;6.55;3.87;;;;;;;13.95;53.09;100874.34;4444054;32;33925;-62
2022/10/18 05:21:47;;;;;;;8.07;4.87;;;;;;;14.00;52.99;100877.59;4437922;32;34020;-65
2022/10/18 05:24:14;;;;;;;7.60;4.68;;;;;;;13.99;52.56;100884.78;4445740;32;33427;-63
2022/10/18 05:26:42;;;;;;;7.93;5.35;;;;;;;13.94;52.46;100886.09;4445963;32;33768;-65
2022/10/18 05:29:09;;;;;;;5.15;3.80;;;;;;;13.90;52.21;100881.88;4446518;32;33992;-64
2022/10/18 05:31:37;;;;;;;3.95;2.90;;;;;;;13.92;52.05;100885.31;4437437;32;35265;-63
2022/10/18 05:34:04;;;;;;;5.25;3.97;;;;;;;13.87;52.02;100874.03;4448093;32;32976;-65
2022/10/18 05:36:32;;;;;;;7.43;4.50;;;;;;;13.67;52.66;100872.72;4437391;32;34120;-65
2022/10/18 05:39:02;;;;;;;6.28;4.10;;;;;;;13.77;52.34;100883.69;4446969;32;35258;-64
2022/10/18 05:41:31;;;;;;;4.22;3.37;;;;;;;13.74;52.57;100882.13;4447987;32;34350;-63
2022/10/18 05:44:03;;;;;;;7.45;4.80;;;;;;;13.75;52.59;100876.59;4446893;32;32151;-64
2022/10/18 05:46:31;;;;;;;7.28;5.05;;;;;;;13.76;53.08;100882.84;4443068;32;35054;-64
2022/10/18 05:48:59;;;;;;;9.85;5.45;;;;;;;13.76;53.44;100877.47;4447149;32;32614;-64
2022/10/18 05:51:26;;;;;;;9.73;6.28;;;;;;;13.87;53.09;100882.13;4443627;32;34683;-63
2022/10/18 05:53:54;;;;;;;9.18;6.25;;;;;;;13.90;53.02;100882.75;4442932;32;33108;-64
2022/10/18 05:56:21;;;;;;;5.15;3.80;;;;;;;13.93;53.40;100887.94;4441940;32;36801;-65
2022/10/18 05:58:50;;;;;;;7.45;4.30;;;;;;;13.94;53.34;100883.41;4448536;32;35269;-65
2022/10/18 06:01:17;;;;;;;7.12;4.70;;;;;;;14.11;53.21;100883.03;4430781;32;33753;-65
2022/10/18 06:03:45;;;;;;;6.90;4.85;;;;;;;14.11;53.79;100882.19;4441647;32;33123;-65
2022/10/18 06:06:13;;;;;;;6.90;4.62;;;;;;;14.19;53.58;100888.75;4440732;32;35071;-64
2022/10/18 06:08:42;;;;;;;3.62;2.65;;;;;;;14.12;54.39;100882.06;4447175;32;32850;-63
2022/10/18 06:11:12;;;;;;;8.40;5.22;;;;;;;14.27;54.37;100887.34;4447736;32;34124;-65
2022/10/18 06:13:41;;;;;;;7.15;4.53;;;;;;;14.38;54.23;100884.72;4435410;32;33589;-65
2022/10/18 06:16:09;;;;;;;15.70;6.40;;;;;;;14.50;54.55;100886.53;4445728;32;33963;-65
2022/10/18 06:18:37;;;;;;;7.97;5.22;;;;;;;14.47;55.48;100878.66;4435648;32;32865;-64
2022/10/18 06:21:05;;;;;;;8.75;4.47;;;;;;;14.64;55.53;100888.25;4448421;32;34056;-65
2022/10/18 06:23:33;;;;;;;8.43;5.43;;;;;;;14.78;55.35;100895.31;4446486;32;32977;-65
2022/10/18 06:26:03;;;;;;;9.85;5.87;;;;;;;14.92;54.68;100895.13;4445184;32;33876;-65
2022/10/18 06:28:33;;;;;;;7.55;4.50;;;;;;;15.05;54.47;100897.75;4441510;32;33830;-64
2022/10/18 06:31:01;;;;;;;10.73;5.10;;;;;;;15.10;54.67;100893.75;4444248;32;32956;-66
2022/10/18 06:33:30;;;;;;;7.87;6.07;;;;;;;15.17;54.81;100898.69;4445387;32;34250;-65
2022/10/18 06:36:06;;;;;;;11.70;7.22;;;;;;;15.26;55.10;100898.00;4448890;32;33599;-67
2022/10/18 06:38:34;;;;;;;11.73;5.40;;;;;;;15.45;54.84;100892.91;4442046;32;32628;-66
2022/10/18 06:41:03;;;;;;;13.77;8.20;;;;;;;15.40;55.41;100894.22;4441077;32;34773;-67
2022/10/18 06:43:31;;;;;;;12.82;7.05;;;;;;;15.53;55.06;100903.94;4443136;32;33948;-65
2022/10/18 06:46:01;;;;;;;9.90;5.40;;;;;;;15.44;55.23;100902.00;4444330;32;33903;-67
2022/10/18 06:48:30;;;;;;;10.25;6.43;;;;;;;15.74;54.90;100897.91;4423119;32;32047;-65
2022/10/18 06:50:59;;;;;;;16.15;6.82;;;;;;;15.81;54.76;100896.44;4442564;32;33611;-66
2022/10/18 06:53:30;;;;;;;8.55;6.12;;;;;;;15.75;54.47;100907.72;4440135;32;32913;-65
2022/10/18 06:56:05;;;;;;;10.90;6.85;;;;;;;15.94;54.59;100905.31;4442491;32;33118;-65
2022/10/18 06:58:34;;;;;;;;;;;;;;;15.80;55.03;100906.41;4438281;32;34215;-65
2022/10/18 07:01:10;;;;;;;11.65;6.10;;;;;;;16.27;53.82;100914.41;4450809;32;34561;-66
2022/10/18 07:03:38;;;;;;;7.53;5.15;;;;;;;16.09;54.04;100915.88;4441106;32;33404;-65
2022/10/18 07:06:07;;;;;;;5.72;4.53;;;;;;;16.26;53.51;100918.09;4446400;32;33943;-65
2022/10/18 07:08:35;;;;;;;8.82;6.97;;;;;;;15.93;54.62;100911.69;4444343;32;35615;-66
2022/10/18 07:11:04;;;;;;;12.85;7.10;;;;;;;15.92;54.35;100911.78;4452037;32;34031;-65
2022/10/18 07:13:33;;;;;;;18.37;7.80;;;;;;;15.95;54.64;100909.72;4444854;32;33081;-65
2022/10/18 07:16:11;;;;;;;10.38;7.30;;;;;;;15.92;54.89;100904.59;4431805;32;33822;-65
2022/10/18 07:18:47;;;;;;;9.63;5.78;;;;;;;15.80;55.00;100908.25;4447892;32;34777;-65
2022/10/18 07:21:16;;;;;;;12.63;7.32;;;;;;;15.75;54.61;100900.47;4443375;32;33753;-65
2022/10/18 07:23:45;;;;;;;10.18;7.00;;;;;;;15.45;55.45;100908.25;4446048;32;33039;-65
2022/10/18 07:26:14;;;;;;;10.45;6.65;;;;;;;15.89;54.34;100895.84;4450270;32;32705;-66
2022/10/18 07:28:42;;;;;;;6.35;5.28;;;;;;;15.82;54.27;100898.16;4447095;32;34100;-64
2022/10/18 07:31:10;;;;;;;14.13;8.43;;;;;;;15.82;54.22;100892.75;4442260;32;33794;-67
2022/10/18 07:33:38;;;;;;;8.07;5.47;;;;;;;15.56;55.20;100890.22;4442854;32;33130;-65
2022/10/18 07:36:07;;;;;;;8.98;6.05;;;;;;;15.79;54.75;100890.31;4432007;32;33457;-65
2022/10/18 07:38:35;;;;;;;9.85;6.45;;;;;;;16.02;53.78;100886.66;4437328;32;34102;-64
2022/10/18 07:41:05;;;;;;;8.38;5.60;;;;;;;15.59;55.22;100895.38;4419905;32;33894;-65
2022/10/18 07:43:34;;;;;;;10.07;7.32;;;;;;;15.71;54.19;100892.75;4420238;32;34457;-65
2022/10/18 07:46:04;;;;;;;12.82;4.95;;;;;;;15.87;53.54;100892.41;4419054;32;32453;-66
2022/10/18 07:48:31;;;;;;;10.13;7.40;;;;;;;15.46;55.03;100897.31;4428459;32;32706;-66
2022/10/18 07:51:00;;;;;;;10.63;7.00;;;;;;;15.94;53.78;100894.50;4419788;32;35231;-66
2022/10/18 07:53:28;;;;;;;10.25;5.62;;;;;;;16.05;53.89;100893.63;4420712;32;33633;-65
2022/10/18 07:56:00;;;;;;;13.45;7.62;;;;;;;16.52;52.70;100895.22;4420956;32;33869;-67
2022/10/18 07:58:32;;;;;;;14.32;5.32;;;;;;;16.50;52.60;100897.22;4420744;32;34108;-66
2022/10/18 08:01:05;;;;;;;9.43;6.72;;;;;;;16.36;53.06;100892.06;4420260;32;33932;-65
2022/10/18 08:03:35;;;;;;;13.85;8.20;;;;;;;16.72;52.42;100882.78;4414669;32;34720;-64
2022/10/18 08:06:04;;;;;;;12.90;7.15;;;;;;;16.90;51.50;100875.03;4421522;32;33523;-64
2022/10/18 08:08:31;;;;;;;12.80;5.85;;;;;;;16.89;49.08;100877.87;4415090;32;32772;-64
2022/10/18 08:11:14;;;;;;;12.95;6.45;;;;;;;16.59;48.09;100875.81;4431661;32;33922;-65
2022/10/18 08:13:42;;;;;;;11.90;5.85;;;;;;;17.02;47.13;100867.72;4420304;32;33197;-65
2022/10/18 08:16:19;;;;;;;6.85;4.62;;;;;;;17.33;46.53;100868.69;4418880;32;32642;-65
2022/10/18 08:18:46;;;;;;;16.37;5.47;;;;;;;17.26;47.11;100864.78;4420625;32;35194;-65
2022/10/18 08:21:15;;;;;;;7.78;5.32;;;;;;;17.35;45.66;100861.31;4427940;32;33960;-64
2022/10/18 08:23:43;;;;;;;11.38;6.37;;;;;;;17.57;45.59;100854.91;4420711;32;33219;-64
2022/10/18 08:26:13;;;;;;;10.90;5.72;;;;;;;17.16;46.66;100850.34;4418716;32;32484;-65
2022/10/18 08:28:41;;;;;;;12.00;5.97;;;;;;;17.39;46.25;100854.63;4437916;32;33630;-65
2022/10/18 08:31:20;;;;;;;10.07;6.62;;;;;;;17.53;44.83;100853.47;4418707;32;32576;-64
2022/10/18 08:33:48;;;;;;;8.75;4.78;;;;;;;17.32;45.38;100849.88;4412034;32;33131;-64
2022/10/18 08:36:15;;;;;;;10.05;5.37;;;;;;;17.59;44.97;100849.34;4422394;32;33932;-64
2022/10/18 08:38:43;;;;;;;8.25;4.47;;;;;;;17.53;44.60;100848.06;4421751;32;32794;-64
2022/10/18 08:41:14;;;;;;;10.90;6.30;;;;;;;17.46;44.40;100846.84;4433823;32;33394;-66
2022/10/18 08:43:52;;;;;;;11.00;5.85;;;;;;;17.60;44.99;100840.25;4445432;32;32879;-66
2022/10/18 08:46:20;;;;;;;5.65;3.55;;;;;;;17.96;44.43;100835.34;4440434;32;35103;-65
2022/10/18 08:48:50;;;;;;;6.65;4.45;;;;;;;17.80;43.15;100831.25;4443774;32;32589;-66
2022/10/18 08:51:28;;;;;;;7.25;4.65;;;;;;;17.90;43.83;100829.44;4448281;32;33048;-64
2022/10/18 08:54:06;;;;;;;7.87;5.30;;;;;;;18.14;44.52;100829.13;4443922;32;33479;-63
2022/10/18 08:56:34;;;;;;;5.57;4.15;;;;;;;18.47;41.97;100821.66;4437388;32;33508;-66
2022/10/18 08:59:05;;;;;;;9.65;5.82;;;;;;;18.42;42.86;100818.50;4439813;32;34113;-66
2022/10/18 09:01:42;;;;;;;9.18;4.60;;;;;;;18.37;42.01;100809.94;4438560;32;34587;-64
2022/10/18 09:04:42;;;;;;;8.63;4.60;;;;;;;18.05;40.98;100813.69;4441206;32;34463;-66
2022/10/18 09:07:28;;;;;;;5.80;4.12;;;;;;;18.58;41.08;100807.13;4443575;32;32646;-64
2022/10/18 09:10:14;;;;;;;6.32;4.53;;;;;;;18.92;41.00;100810.31;4440696;32;34854;-65
2022/10/18 09:12:58;;;;;;;12.35;6.03;;;;;;;18.94;39.55;100811.06;4445456;32;132956;-65
2022/10/18 09:15:34;;;;;;;6.53;3.60;;;;;;;18.93;40.04;100803.03;4450954;32;34626;-67
2022/10/18 09:18:04;;;;;;;6.10;3.53;;;;;;;18.96;39.58;100806.31;4443411;32;33417;-65
2022/10/18 09:21:18;;;;;;;21.75;4.55;;;;;;;18.57;39.79;100798.12;4446078;32;33228;-64
2022/10/18 09:23:58;;;;;;;6.05;3.60;;;;;;;18.86;39.28;100794.62;4408449;32;34670;-64
2022/10/18 09:26:26;;;;;;;5.15;2.95;;;;;;;19.19;38.68;100796.00;4443382;32;34949;-64
2022/10/18 09:29:20;;;;;;;6.78;4.53;;;;;;;19.02;40.55;100792.19;4448472;32;33818;-66
2022/10/18 09:32:10;;;;;;;5.87;3.83;;;;;;;19.25;37.10;100792.72;4449067;32;34182;-64
2022/10/18 09:34:54;;;;;;;9.48;4.55;;;;;;;18.89;37.81;100786.19;4445633;32;35281;-65
2022/10/18 09:37:24;;;;;;;6.47;4.50;;;;;;;19.14;37.73;100782.03;4451604;32;32559;-65
2022/10/18 09:40:12;;;;;;;10.00;5.47;;;;;;;19.03;38.63;100784.91;4436186;32;32802;-67
2022/10/18 09:43:00;;;;;;;8.95;4.20;;;;;;;19.49;36.58;100783.25;4441580;32;34173;-64
2022/10/18 09:45:36;;;;;;;8.02;3.25;;;;;;;18.97;36.95;100780.03;4429893;32;33831;-64
2022/10/18 09:48:25;;;;;;;5.65;2.87;;;;;;;19.27;37.08;100782.59;4449383;32;31852;-64
2022/10/18 09:51:03;;;;;;;11.85;5.03;;;;;;;19.30;37.00;100768.72;4441788;32;32418;-68
2022/10/18 09:53:54;;;;;;;5.75;4.18;;;;;;;19.08;38.67;100772.63;4442775;32;32927;-65
2022/10/18 09:56:43;;;;;;;7.40;4.25;;;;;;;19.31;38.10;100767.72;4440430;32;33751;-64
2022/10/18 09:59:33;;;;;;;4.78;3.28;;;;;;;18.92;38.33;100769.63;4448564;32;32061;-64
2022/10/18 10:02:00;;;;;;;4.87;3.60;;;;;;;19.70;36.68;100755.91;4446816;32;33966;-64
2022/10/18 10:04:28;;;;;;;7.57;4.22;;;;;;;19.49;36.88;100765.13;4438570;32;35075;-65
2022/10/18 10:06:59;;;;;;;5.55;3.87;;;;;;;19.43;36.95;100762.13;4449112;32;33921;-65
2022/10/18 10:09:36;;;;;;;8.90;4.35;;;;;;;19.58;37.36;100744.34;4438763;32;33427;-64
2022/10/18 10:12:04;;;;;;;6.32;4.18;;;;;;;19.61;38.35;100752.19;4445168;32;34838;-65
2022/10/18 10:14:42;;;;;;;12.27;4.25;;;;;;;19.66;38.44;100741.78;4431003;32;33369;-65
2022/10/18 10:17:21;;;;;;;5.18;3.40;;;;;;;20.05;37.37;100736.16;4447856;32;32696;-67
2022/10/18 10:19:56;;;;;;;6.85;4.57;;;;;;;19.99;36.53;100742.19;4445591;32;33433;-68
2022/10/18 10:22:34;;;;;;;7.45;3.92;;;;;;;19.74;37.23;100735.59;4443536;32;32403;-66
2022/10/18 10:25:02;;;;;;;5.70;3.55;;;;;;;19.86;37.22;100726.25;4427177;32;32645;-65
2022/10/18 10:27:42;;;;;;;7.12;3.40;;;;;;;19.59;37.90;100729.78;4440069;32;33837;-66
2022/10/18 10:30:27;;;;;;;9.38;4.40;;;;;;;19.65;38.07;100731.09;4446863;32;33373;-66
2022/10/18 10:32:56;;;;;;;6.55;4.72;;;;;;;20.18;35.83;100722.19;4442210;32;35086;-66
2022/10/18 10:35:36;;;;;;;7.37;4.32;;;;;;;19.89;36.36;100716.94;4437483;32;34159;-64
2022/10/18 10:38:28;;;;;;;9.27;4.90;;;;;;;19.93;36.69;100715.63;4449328;32;34897;-66
2022/10/18 10:40:57;;;;;;;7.32;3.95;;;;;;;20.06;35.95;100713.41;4448305;32;33087;-64
2022/10/18 10:43:32;;;;;;;6.28;4.47;;;;;;;19.95;36.39;100702.75;4443970;32;33975;-67
2022/10/18 10:46:13;;;;;;;7.15;4.40;;;;;;;20.02;36.79;100698.41;4446871;32;33973;-64
2022/10/18 10:48:53;;;;;;;9.90;4.68;;;;;;;20.35;37.20;100696.03;4433752;32;33696;-66
2022/10/18 10:51:42;;;;;;;8.88;5.05;;;;;;;20.12;37.27;100692.91;4442234;32;33303;-65
2022/10/18 10:54:20;;;;;;;10.07;5.68;;;;;;;20.45;37.19;100686.81;4446640;32;31564;-67
2022/10/18 10:57:12;;;;;;;7.18;4.70;;;;;;;20.38;36.57;100688.41;4442306;32;35327;-65
2022/10/18 10:59:45;;;;;;;8.15;4.50;;;;;;;20.47;36.67;100683.91;4438319;32;33494;-64
2022/10/18 11:02:13;;;;;;;15.27;5.25;;;;;;;20.09;37.25;100685.06;4442955;32;33925;-64
2022/10/18 11:04:41;;;;;;;6.90;3.95;;;;;;;20.57;35.80;100681.16;4447934;32;32780;-65
2022/10/18 11:07:15;;;;;;;10.57;4.87;;;;;;;20.83;35.31;100671.16;4431211;32;33618;-64
2022/10/18 11:09:50;;;;;;;13.82;5.30;;;;;;;21.02;35.13;100666.53;4450749;32;33850;-66
2022/10/18 11:12:35;;;;;;;7.53;3.30;;;;;;;20.88;35.70;100676.12;4441013;32;32833;-67
2022/10/18 11:15:10;;;;;;;6.28;3.97;;;;;;;20.98;35.13;100666.00;4444474;32;33750;-67
2022/10/18 11:17:45;;;;;;;9.38;4.25;;;;;;;20.77;35.32;100657.34;4451641;32;33368;-68
2022/10/18 11:20:13;;;;;;;10.63;4.62;;;;;;;21.24;33.73;100654.25;4452261;32;34014;-65
2022/10/18 11:22:43;;;;;;;9.80;4.60;;;;;;;20.91;35.12;100651.34;4450928;32;32765;-65
2022/10/18 11:25:14;;;;;;;6.40;3.25;;;;;;;21.03;35.99;100649.22;4451649;32;34025;-67
2022/10/18 11:27:53;;;;;;;8.35;2.60;;;;;;;21.29;33.70;100649.19;4452801;32;32095;-66
2022/10/18 11:30:50;;;;;;;7.82;4.00;;;;;;;20.78;34.19;100649.03;4449974;32;34029;-66
2022/10/18 11:33:31;;;;;;;5.60;3.08;;;;;;;20.84;34.11;100650.25;4450390;32;31707;-66
2022/10/18 11:36:42;;;;;;;6.37;3.67;;;;;;;20.81;33.23;100631.53;4445654;32;31753;-66
2022/10/18 11:39:39;;;;;;;7.68;4.50;;;;;;;21.16;33.39;100630.56;4445673;32;33755;-66
2022/10/18 11:42:26;;;;;;;7.20;3.65;;;;;;;21.28;32.74;100625.69;4429683;32;34780;-67
2022/10/18 11:45:24;;;;;;;7.47;4.55;;;;;;;21.41;32.16;100628.81;4454203;32;34057;-66
2022/10/18 11:47:56;;;;;;;9.32;3.03;;;;;;;21.49;32.28;100623.44;4445890;32;33820;-67
2022/10/18 11:50:33;;;;;;;7.40;4.80;;;;;;;21.26;33.24;100616.84;4436784;32;34361;-66